sensor_id;sensor_type;location;lat;lon;timestamp;pressure;altitude;pressure_sealevel;temperature;humidity
58534;BME280;44109;52.398;7.024;2023-02-11T00:01:28;103019.84;;;6.93;100.00
58534;BME280;44109;52.398;7.024;2023-02-11T00:03:59;103031.25;;;6.86;100.00
58534;BME280;44109;52.398;7.024;2023-02-11T00:06:29;103022.88;;;6.97;100.00
58534;BME280;44109;52.398;7.024;2023-02-11T00:08:59;103026.69;;;7.01;100.00
58534;BME280;44109;52.398;7.024;2023-02-11T00:11:28;103025.63;;;6.97;100.00
58534;BME280;44109;52.398;7.024;2023-02-11T00:13:57;103025.63;;;6.97;100.00
58534;BME280;44109;52.398;7.024;2023-02-11T00:16:26;103018.47;;;6.96;100.00
58534;BME280;44109;52.398;7.024;2023-02-11T00:18:54;103026.88;;;7.09;100.00
58534;BME280;44109;52.398;7.024;2023-02-11T00:21:24;103027.75;;;7.05;100.00
58534;BME280;44109;52.398;7.024;2023-02-11T00:23:53;103029.97;;;7.03;100.00
58534;BME280;44109;52.398;7.024;2023-02-11T00:26:25;103028.31;;;7.02;100.00
58534;BME280;44109;52.398;7.024;2023-02-11T00:28:54;103036.50;;;7.12;100.00
58534;BME280;44109;52.398;7.024;2023-02-11T00:31:22;103048.09;;;7.14;100.00
58534;BME280;44109;52.398;7.024;2023-02-11T00:33:51;103045.38;;;7.09;100.00
58534;BME280;44109;52.398;7.024;2023-02-11T00:36:21;103051.31;;;7.21;100.00
58534;BME280;44109;52.398;7.024;2023-02-11T00:38:52;103047.41;;;7.27;100.00
58534;BME280;44109;52.398;7.024;2023-02-11T00:41:22;103046.06;;;6.96;100.00
58534;BME280;44109;52.398;7.024;2023-02-11T00:43:51;103046.38;;;7.18;100.00
58534;BME280;44109;52.398;7.024;2023-02-11T00:46:19;103024.69;;;7.06;100.00
58534;BME280;44109;52.398;7.024;2023-02-11T00:48:48;103035.41;;;7.13;100.00
58534;BME280;44109;52.398;7.024;2023-02-11T00:51:17;103036.94;;;7.24;100.00
58534;BME280;44109;52.398;7.024;2023-02-11T00:53:44;103032.09;;;7.11;100.00
58534;BME280;44109;52.398;7.024;2023-02-11T00:56:12;103029.88;;;7.13;100.00
58534;BME280;44109;52.398;7.024;2023-02-11T00:58:41;103024.19;;;7.28;100.00
58534;BME280;44109;52.398;7.024;2023-02-11T01:01:09;103027.66;;;7.15;100.00
58534;BME280;44109;52.398;7.024;2023-02-11T01:06:11;103003.22;;;7.27;100.00
58534;BME280;44109;52.398;7.024;2023-02-11T01:08:39;103008.94;;;7.07;100.00
58534;BME280;44109;52.398;7.024;2023-02-11T01:11:12;103006.19;;;7.07;100.00
58534;BME280;44109;52.398;7.024;2023-02-11T01:13:43;103017.78;;;7.33;100.00
58534;BME280;44109;52.398;7.024;2023-02-11T01:16:11;103010.78;;;7.17;100.00
58534;BME280;44109;52.398;7.024;2023-02-11T01:18:40;102990.06;;;7.19;100.00
58534;BME280;44109;52.398;7.024;2023-02-11T01:21:09;102991.75;;;7.15;100.00
58534;BME280;44109;52.398;7.024;2023-02-11T01:23:37;102996.88;;;7.27;100.00
58534;BME280;44109;52.398;7.024;2023-02-11T01:26:05;102991.63;;;7.25;100.00
58534;BME280;44109;52.398;7.024;2023-02-11T01:28:35;103005.75;;;7.24;100.00
58534;BME280;44109;52.398;7.024;2023-02-11T01:31:04;103004.31;;;7.26;100.00
58534;BME280;44109;52.398;7.024;2023-02-11T01:33:32;103010.97;;;7.25;100.00
58534;BME280;44109;52.398;7.024;2023-02-11T01:36:01;103022.44;;;7.08;100.00
58534;BME280;44109;52.398;7.024;2023-02-11T01:38:30;102993.56;;;7.01;100.00
58534;BME280;44109;52.398;7.024;2023-02-11T01:41:03;103009.31;;;7.24;100.00
58534;BME280;44109;52.398;7.024;2023-02-11T01:43:34;103000.38;;;7.08;100.00
58534;BME280;44109;52.398;7.024;2023-02-11T01:46:13;102992.34;;;7.12;100.00
58534;BME280;44109;52.398;7.024;2023-02-11T01:48:52;102971.88;;;7.18;100.00
58534;BME280;44109;52.398;7.024;2023-02-11T01:51:25;102994.22;;;7.17;100.00
58534;BME280;44109;52.398;7.024;2023-02-11T01:53:59;102987.59;;;7.42;100.00
58534;BME280;44109;52.398;7.024;2023-02-11T01:56:48;102992.81;;;7.19;100.00
58534;BME280;44109;52.398;7.024;2023-02-11T01:59:39;102993.88;;;7.23;100.00
58534;BME280;44109;52.398;7.024;2023-02-11T02:02:14;102972.19;;;7.35;100.00
58534;BME280;44109;52.398;7.024;2023-02-11T02:04:51;102959.13;;;7.22;100.00
58534;BME280;44109;52.398;7.024;2023-02-11T02:07:26;102949.69;;;6.99;100.00
58534;BME280;44109;52.398;7.024;2023-02-11T02:10:03;102964.66;;;7.22;100.00
58534;BME280;44109;52.398;7.024;2023-02-11T02:12:35;102937.38;;;6.92;100.00
58534;BME280;44109;52.398;7.024;2023-02-11T02:15:26;102964.09;;;7.20;100.00
58534;BME280;44109;52.398;7.024;2023-02-11T02:18:00;102961.28;;;7.25;100.00
58534;BME280;44109;52.398;7.024;2023-02-11T02:24:30;102957.38;;;7.26;100.00
58534;BME280;44109;52.398;7.024;2023-02-11T02:27:33;102935.44;;;7.16;100.00
58534;BME280;44109;52.398;7.024;2023-02-11T02:30:20;102974.19;;;7.30;100.00
58534;BME280;44109;52.398;7.024;2023-02-11T02:33:23;102975.94;;;6.97;100.00
58534;BME280;44109;52.398;7.024;2023-02-11T02:36:08;102966.78;;;7.25;100.00
58534;BME280;44109;52.398;7.024;2023-02-11T02:38:48;102966.56;;;7.46;100.00
58534;BME280;44109;52.398;7.024;2023-02-11T02:41:22;102923.75;;;7.24;100.00
58534;BME280;44109;52.398;7.024;2023-02-11T02:43:55;102957.97;;;7.47;100.00
58534;BME280;44109;52.398;7.024;2023-02-11T02:46:25;102952.22;;;7.44;100.00
58534;BME280;44109;52.398;7.024;2023-02-11T02:48:56;102926.53;;;7.00;100.00
58534;BME280;44109;52.398;7.024;2023-02-11T02:51:40;102952.34;;;7.33;100.00
58534;BME280;44109;52.398;7.024;2023-02-11T02:54:51;102953.63;;;7.41;100.00
58534;BME280;44109;52.398;7.024;2023-02-11T02:57:38;102950.56;;;7.43;100.00
58534;BME280;44109;52.398;7.024;2023-02-11T03:00:23;102933.31;;;7.32;100.00
58534;BME280;44109;52.398;7.024;2023-02-11T03:03:12;102951.75;;;7.36;100.00
58534;BME280;44109;52.398;7.024;2023-02-11T03:05:52;102924.75;;;7.33;100.00
58534;BME280;44109;52.398;7.024;2023-02-11T03:08:28;102936.03;;;7.37;100.00
58534;BME280;44109;52.398;7.024;2023-02-11T03:11:02;102917.81;;;7.36;100.00
58534;BME280;44109;52.398;7.024;2023-02-11T03:13:33;102942.69;;;7.55;100.00
58534;BME280;44109;52.398;7.024;2023-02-11T03:16:08;102942.97;;;7.53;100.00
58534;BME280;44109;52.398;7.024;2023-02-11T03:18:40;102949.28;;;7.59;100.00
58534;BME280;44109;52.398;7.024;2023-02-11T03:21:13;102948.31;;;7.45;100.00
58534;BME280;44109;52.398;7.024;2023-02-11T03:23:47;102939.38;;;7.53;100.00
58534;BME280;44109;52.398;7.024;2023-02-11T03:26:24;102930.72;;;7.41;100.00
58534;BME280;44109;52.398;7.024;2023-02-11T03:29:00;102946.19;;;7.42;100.00
58534;BME280;44109;52.398;7.024;2023-02-11T03:31:39;102939.59;;;7.37;100.00
58534;BME280;44109;52.398;7.024;2023-02-11T03:34:15;102951.88;;;7.26;100.00
58534;BME280;44109;52.398;7.024;2023-02-11T03:36:51;102948.69;;;7.38;100.00
58534;BME280;44109;52.398;7.024;2023-02-11T03:39:26;102954.13;;;7.24;100.00
58534;BME280;44109;52.398;7.024;2023-02-11T03:41:56;102951.53;;;7.33;100.00
58534;BME280;44109;52.398;7.024;2023-02-11T03:44:30;102951.25;;;7.53;100.00
58534;BME280;44109;52.398;7.024;2023-02-11T03:47:04;102954.81;;;7.35;100.00
58534;BME280;44109;52.398;7.024;2023-02-11T03:49:37;102954.25;;;7.57;100.00
58534;BME280;44109;52.398;7.024;2023-02-11T03:52:10;102946.31;;;7.31;100.00
58534;BME280;44109;52.398;7.024;2023-02-11T03:54:41;102965.94;;;7.49;100.00
58534;BME280;44109;52.398;7.024;2023-02-11T03:57:12;102954.78;;;7.59;100.00
58534;BME280;44109;52.398;7.024;2023-02-11T03:59:50;102969.28;;;7.27;100.00
58534;BME280;44109;52.398;7.024;2023-02-11T04:02:20;102981.53;;;7.40;100.00
58534;BME280;44109;52.398;7.024;2023-02-11T04:04:50;102977.00;;;7.49;100.00
58534;BME280;44109;52.398;7.024;2023-02-11T04:07:19;102969.53;;;7.49;100.00
58534;BME280;44109;52.398;7.024;2023-02-11T04:09:47;102962.53;;;7.57;100.00
58534;BME280;44109;52.398;7.024;2023-02-11T04:12:14;102961.25;;;7.49;100.00
58534;BME280;44109;52.398;7.024;2023-02-11T04:14:42;102963.63;;;7.37;100.00
58534;BME280;44109;52.398;7.024;2023-02-11T04:17:10;102956.25;;;7.51;100.00
58534;BME280;44109;52.398;7.024;2023-02-11T04:19:38;102969.25;;;7.51;100.00
58534;BME280;44109;52.398;7.024;2023-02-11T04:22:06;102958.78;;;7.48;100.00
58534;BME280;44109;52.398;7.024;2023-02-11T04:24:36;102959.38;;;7.45;100.00
58534;BME280;44109;52.398;7.024;2023-02-11T04:27:03;102947.47;;;7.25;100.00
58534;BME280;44109;52.398;7.024;2023-02-11T04:29:31;102951.34;;;7.24;100.00
58534;BME280;44109;52.398;7.024;2023-02-11T04:31:59;102971.31;;;7.40;100.00
58534;BME280;44109;52.398;7.024;2023-02-11T04:34:27;102956.91;;;7.43;100.00
58534;BME280;44109;52.398;7.024;2023-02-11T04:36:54;102967.72;;;7.40;100.00
58534;BME280;44109;52.398;7.024;2023-02-11T04:39:22;102959.97;;;7.42;100.00
58534;BME280;44109;52.398;7.024;2023-02-11T04:41:51;102953.97;;;7.34;100.00
58534;BME280;44109;52.398;7.024;2023-02-11T04:44:19;102965.84;;;7.35;100.00
58534;BME280;44109;52.398;7.024;2023-02-11T04:46:47;102966.97;;;7.34;100.00
58534;BME280;44109;52.398;7.024;2023-02-11T04:49:15;102967.50;;;7.36;100.00
58534;BME280;44109;52.398;7.024;2023-02-11T04:51:43;102965.84;;;7.35;100.00
58534;BME280;44109;52.398;7.024;2023-02-11T04:54:11;102961.72;;;7.56;100.00
58534;BME280;44109;52.398;7.024;2023-02-11T04:56:39;102962.38;;;7.48;100.00
58534;BME280;44109;52.398;7.024;2023-02-11T04:59:08;102958.06;;;7.61;100.00
58534;BME280;44109;52.398;7.024;2023-02-11T05:01:36;102960.22;;;7.45;100.00
58534;BME280;44109;52.398;7.024;2023-02-11T05:04:04;102959.78;;;7.57;100.00
58534;BME280;44109;52.398;7.024;2023-02-11T05:06:32;102962.84;;;7.55;100.00
58534;BME280;44109;52.398;7.024;2023-02-11T05:08:59;102970.25;;;7.60;100.00
58534;BME280;44109;52.398;7.024;2023-02-11T05:11:27;102975.69;;;7.65;100.00
58534;BME280;44109;52.398;7.024;2023-02-11T05:13:55;102965.78;;;7.64;100.00
58534;BME280;44109;52.398;7.024;2023-02-11T05:16:24;102965.16;;;7.67;100.00
58534;BME280;44109;52.398;7.024;2023-02-11T05:18:53;102971.22;;;7.69;100.00
58534;BME280;44109;52.398;7.024;2023-02-11T05:21:20;102972.91;;;7.46;100.00
58534;BME280;44109;52.398;7.024;2023-02-11T05:23:48;102974.47;;;7.52;100.00
58534;BME280;44109;52.398;7.024;2023-02-11T05:26:17;102966.41;;;7.56;100.00
58534;BME280;44109;52.398;7.024;2023-02-11T05:28:45;102962.28;;;7.77;100.00
58534;BME280;44109;52.398;7.024;2023-02-11T05:31:12;102971.94;;;7.56;100.00
58534;BME280;44109;52.398;7.024;2023-02-11T05:33:43;102972.28;;;7.73;100.00
58534;BME280;44109;52.398;7.024;2023-02-11T05:36:11;102958.59;;;7.63;100.00
58534;BME280;44109;52.398;7.024;2023-02-11T05:38:40;102957.09;;;7.71;100.00
58534;BME280;44109;52.398;7.024;2023-02-11T05:41:08;102962.13;;;7.87;100.00
58534;BME280;44109;52.398;7.024;2023-02-11T05:43:37;102959.63;;;7.67;100.00
58534;BME280;44109;52.398;7.024;2023-02-11T05:46:04;102967.56;;;7.55;100.00
58534;BME280;44109;52.398;7.024;2023-02-11T05:48:32;102942.38;;;7.37;100.00
58534;BME280;44109;52.398;7.024;2023-02-11T05:51:02;102966.72;;;7.54;100.00
58534;BME280;44109;52.398;7.024;2023-02-11T05:53:30;102967.41;;;7.65;100.00
58534;BME280;44109;52.398;7.024;2023-02-11T05:55:58;102973.44;;;7.67;100.00
58534;BME280;44109;52.398;7.024;2023-02-11T05:58:25;102941.56;;;7.56;100.00
58534;BME280;44109;52.398;7.024;2023-02-11T06:00:53;102966.59;;;7.83;100.00
58534;BME280;44109;52.398;7.024;2023-02-11T06:03:21;102965.31;;;7.76;100.00
58534;BME280;44109;52.398;7.024;2023-02-11T06:05:48;102961.66;;;7.80;100.00
58534;BME280;44109;52.398;7.024;2023-02-11T06:08:17;102953.50;;;7.51;100.00
58534;BME280;44109;52.398;7.024;2023-02-11T06:10:45;102962.22;;;7.58;100.00
58534;BME280;44109;52.398;7.024;2023-02-11T06:13:13;102958.91;;;7.80;100.00
58534;BME280;44109;52.398;7.024;2023-02-11T06:15:43;102967.25;;;7.56;100.00
58534;BME280;44109;52.398;7.024;2023-02-11T06:18:11;102959.50;;;7.34;100.00
58534;BME280;44109;52.398;7.024;2023-02-11T06:20:38;102957.16;;;7.47;100.00
58534;BME280;44109;52.398;7.024;2023-02-11T06:23:06;102968.78;;;7.44;100.00
58534;BME280;44109;52.398;7.024;2023-02-11T06:25:35;102963.06;;;7.59;100.00
58534;BME280;44109;52.398;7.024;2023-02-11T06:28:03;102960.25;;;7.40;100.00
58534;BME280;44109;52.398;7.024;2023-02-11T06:30:31;102963.19;;;7.49;100.00
58534;BME280;44109;52.398;7.024;2023-02-11T06:32:58;102970.88;;;7.52;100.00
58534;BME280;44109;52.398;7.024;2023-02-11T06:35:26;102966.72;;;7.54;100.00
58534;BME280;44109;52.398;7.024;2023-02-11T06:37:54;102969.19;;;7.56;100.00
58534;BME280;44109;52.398;7.024;2023-02-11T06:40:22;102958.44;;;7.54;100.00
58534;BME280;44109;52.398;7.024;2023-02-11T06:42:51;102965.13;;;7.48;100.00
58534;BME280;44109;52.398;7.024;2023-02-11T06:45:19;102959.97;;;7.42;100.00
58534;BME280;44109;52.398;7.024;2023-02-11T06:47:46;102965.91;;;7.30;100.00
58534;BME280;44109;52.398;7.024;2023-02-11T06:50:14;102966.31;;;7.42;100.00
58534;BME280;44109;52.398;7.024;2023-02-11T06:52:42;102967.97;;;7.43;100.00
58534;BME280;44109;52.398;7.024;2023-02-11T06:55:09;102968.00;;;7.62;100.00
58534;BME280;44109;52.398;7.024;2023-02-11T06:57:37;102971.94;;;7.56;100.00
58534;BME280;44109;52.398;7.024;2023-02-11T07:00:07;102952.69;;;7.51;100.00
58534;BME280;44109;52.398;7.024;2023-02-11T07:02:36;102951.63;;;7.47;100.00
58534;BME280;44109;52.398;7.024;2023-02-11T07:05:04;102956.78;;;7.53;100.00
58534;BME280;44109;52.398;7.024;2023-02-11T07:07:33;102950.56;;;7.43;100.00
58534;BME280;44109;52.398;7.024;2023-02-11T07:10:00;102950.22;;;7.25;100.00
58534;BME280;44109;52.398;7.024;2023-02-11T07:12:29;102946.19;;;7.42;100.00
58534;BME280;44109;52.398;7.024;2023-02-11T07:14:57;102950.22;;;7.25;100.00
58534;BME280;44109;52.398;7.024;2023-02-11T07:17:26;102960.56;;;7.38;100.00
58534;BME280;44109;52.398;7.024;2023-02-11T07:19:54;102953.03;;;7.44;100.00
58534;BME280;44109;52.398;7.024;2023-02-11T07:22:21;102966.56;;;7.46;100.00
58534;BME280;44109;52.398;7.024;2023-02-11T07:24:49;102960.56;;;7.38;100.00
58534;BME280;44109;52.398;7.024;2023-02-11T07:27:17;102964.44;;;7.37;100.00
58534;BME280;44109;52.398;7.024;2023-02-11T07:29:45;102956.91;;;7.43;100.00
58534;BME280;44109;52.398;7.024;2023-02-11T07:32:13;102959.97;;;7.42;100.00
58534;BME280;44109;52.398;7.024;2023-02-11T07:34:42;102971.38;;;7.35;100.00
58534;BME280;44109;52.398;7.024;2023-02-11T07:37:13;102979.69;;;7.54;100.00
58534;BME280;44109;52.398;7.024;2023-02-11T07:39:40;102974.22;;;7.49;100.00
58534;BME280;44109;52.398;7.024;2023-02-11T07:42:08;102944.66;;;7.30;100.00
58534;BME280;44109;52.398;7.024;2023-02-11T07:44:36;102983.47;;;7.63;100.00
58534;BME280;44109;52.398;7.024;2023-02-11T07:47:03;102984.84;;;7.42;100.00
58534;BME280;44109;52.398;7.024;2023-02-11T07:49:31;102979.94;;;7.57;100.00
58534;BME280;44109;52.398;7.024;2023-02-11T07:52:00;102986.28;;;7.58;100.00
58534;BME280;44109;52.398;7.024;2023-02-11T07:54:28;102983.56;;;7.53;100.00
58534;BME280;44109;52.398;7.024;2023-02-11T07:56:55;102999.50;;;7.61;100.00
58534;BME280;44109;52.398;7.024;2023-02-11T07:59:23;103005.78;;;7.67;100.00
58534;BME280;44109;52.398;7.024;2023-02-11T08:01:52;103000.72;;;7.74;100.00
58534;BME280;44109;52.398;7.024;2023-02-11T08:04:20;102998.69;;;7.79;100.00
58534;BME280;44109;52.398;7.024;2023-02-11T08:06:47;103007.47;;;7.86;100.00
58534;BME280;44109;52.398;7.024;2023-02-11T08:09:19;103006.66;;;7.86;100.00
58534;BME280;44109;52.398;7.024;2023-02-11T08:11:46;103012.75;;;7.83;100.00
58534;BME280;44109;52.398;7.024;2023-02-11T08:14:14;103010.56;;;7.80;100.00
58534;BME280;44109;52.398;7.024;2023-02-11T08:16:42;103003.50;;;7.93;100.00
58534;BME280;44109;52.398;7.024;2023-02-11T08:19:12;103000.34;;;7.99;100.00
58534;BME280;44109;52.398;7.024;2023-02-11T08:21:42;103002.00;;;7.81;100.00
58534;BME280;44109;52.398;7.024;2023-02-11T08:24:11;103005.50;;;7.87;100.00
58534;BME280;44109;52.398;7.024;2023-02-11T08:26:42;102997.72;;;7.89;100.00
58534;BME280;44109;52.398;7.024;2023-02-11T08:29:12;102991.00;;;7.76;100.00
58534;BME280;44109;52.398;7.024;2023-02-11T08:31:43;102992.75;;;7.91;100.00
58534;BME280;44109;52.398;7.024;2023-02-11T08:34:12;103014.28;;;8.13;100.00
58534;BME280;44109;52.398;7.024;2023-02-11T08:36:44;103015.00;;;8.00;100.00
58534;BME280;44109;52.398;7.024;2023-02-11T08:39:15;103019.84;;;8.08;100.00
58534;BME280;44109;52.398;7.024;2023-02-11T08:41:46;103024.19;;;7.95;100.00
58534;BME280;44109;52.398;7.024;2023-02-11T08:44:15;103035.34;;;8.09;100.00
58534;BME280;44109;52.398;7.024;2023-02-11T08:46:42;103023.91;;;8.16;100.00
58534;BME280;44109;52.398;7.024;2023-02-11T08:49:10;103030.69;;;8.23;100.00
58534;BME280;44109;52.398;7.024;2023-02-11T08:51:38;103029.88;;;8.23;100.00
58534;BME280;44109;52.398;7.024;2023-02-11T08:54:06;103028.44;;;8.25;100.00
58534;BME280;44109;52.398;7.024;2023-02-11T08:56:35;103028.16;;;8.27;100.00
58534;BME280;44109;52.398;7.024;2023-02-11T08:59:05;103037.06;;;8.43;100.00
58534;BME280;44109;52.398;7.024;2023-02-11T09:01:35;103036.81;;;8.20;100.00
58534;BME280;44109;52.398;7.024;2023-02-11T09:04:02;103037.56;;;8.63;100.00
58534;BME280;44109;52.398;7.024;2023-02-11T09:06:30;103033.91;;;8.30;100.00
58534;BME280;44109;52.398;7.024;2023-02-11T09:08:59;103047.88;;;8.58;100.00
58534;BME280;44109;52.398;7.024;2023-02-11T09:11:29;103047.88;;;8.58;100.00
58534;BME280;44109;52.398;7.024;2023-02-11T09:13:59;103036.59;;;8.35;100.00
58534;BME280;44109;52.398;7.024;2023-02-11T09:16:30;103048.72;;;8.58;100.00
58534;BME280;44109;52.398;7.024;2023-02-11T09:19:00;103066.19;;;8.73;100.00
58534;BME280;44109;52.398;7.024;2023-02-11T09:21:29;103059.41;;;8.65;100.00
58534;BME280;44109;52.398;7.024;2023-02-11T09:23:57;103073.34;;;8.93;100.00
58534;BME280;44109;52.398;7.024;2023-02-11T09:26:27;103072.72;;;8.96;100.00
58534;BME280;44109;52.398;7.024;2023-02-11T09:28:58;103076.53;;;9.00;100.00
58534;BME280;44109;52.398;7.024;2023-02-11T09:31:29;103078.38;;;8.91;100.00
58534;BME280;44109;52.398;7.024;2023-02-11T09:34:00;103091.66;;;9.21;100.00
58534;BME280;44109;52.398;7.024;2023-02-11T09:36:31;103092.38;;;9.13;100.00
58534;BME280;44109;52.398;7.024;2023-02-11T09:39:03;103093.28;;;9.08;100.00
58534;BME280;44109;52.398;7.024;2023-02-11T09:41:41;103094.25;;;9.31;100.00
58534;BME280;44109;52.398;7.024;2023-02-11T09:44:22;103093.91;;;9.19;100.00
58534;BME280;44109;52.398;7.024;2023-02-11T09:46:55;103088.28;;;9.24;100.00
58534;BME280;44109;52.398;7.024;2023-02-11T09:49:33;103091.16;;;9.33;100.00
58534;BME280;44109;52.398;7.024;2023-02-11T09:52:12;103099.66;;;9.23;100.00
58534;BME280;44109;52.398;7.024;2023-02-11T09:54:55;103107.47;;;9.34;100.00
58534;BME280;44109;52.398;7.024;2023-02-11T09:57:30;103099.34;;;9.24;100.00
58534;BME280;44109;52.398;7.024;2023-02-11T10:00:00;103109.53;;;9.43;100.00
58534;BME280;44109;52.398;7.024;2023-02-11T10:02:35;103115.56;;;9.31;100.00
58534;BME280;44109;52.398;7.024;2023-02-11T10:05:32;103129.53;;;9.39;100.00
58534;BME280;44109;52.398;7.024;2023-02-11T10:08:14;103128.34;;;9.46;100.00
58534;BME280;44109;52.398;7.024;2023-02-11T10:10:50;103134.13;;;9.30;100.00
58534;BME280;44109;52.398;7.024;2023-02-11T10:13:38;103135.91;;;9.40;100.00
58534;BME280;44109;52.398;7.024;2023-02-11T10:16:24;103132.88;;;9.69;100.00
58534;BME280;44109;52.398;7.024;2023-02-11T10:19:17;103128.94;;;9.43;100.00
58534;BME280;44109;52.398;7.024;2023-02-11T10:22:04;103131.72;;;9.43;100.00
58534;BME280;44109;52.398;7.024;2023-02-11T10:24:36;103136.78;;;9.54;100.00
58534;BME280;44109;52.398;7.024;2023-02-11T10:27:13;103131.09;;;9.46;100.00
58534;BME280;44109;52.398;7.024;2023-02-11T10:29:48;103142.84;;;9.70;100.00
58534;BME280;44109;52.398;7.024;2023-02-11T10:32:28;103143.56;;;9.89;100.00
58534;BME280;44109;52.398;7.024;2023-02-11T10:35:12;103143.16;;;9.96;100.00
58534;BME280;44109;52.398;7.024;2023-02-11T10:37:43;103153.22;;;9.92;100.00
58534;BME280;44109;52.398;7.024;2023-02-11T10:40:13;103149.31;;;9.79;100.00
58534;BME280;44109;52.398;7.024;2023-02-11T10:42:43;103154.13;;;9.87;100.00
58534;BME280;44109;52.398;7.024;2023-02-11T10:45:17;103157.34;;;10.08;100.00
58534;BME280;44109;52.398;7.024;2023-02-11T10:47:51;103155.16;;;10.19;100.00
58534;BME280;44109;52.398;7.024;2023-02-11T10:50:24;103158.34;;;9.99;100.00
58534;BME280;44109;52.398;7.024;2023-02-11T10:53:10;103132.88;;;10.24;100.00
58534;BME280;44109;52.398;7.024;2023-02-11T10:55:48;103151.47;;;10.37;100.00
58534;BME280;44109;52.398;7.024;2023-02-11T10:58:24;103154.84;;;10.34;100.00
58534;BME280;44109;52.398;7.024;2023-02-11T11:00:56;103158.41;;;10.49;100.00
58534;BME280;44109;52.398;7.024;2023-02-11T11:03:30;103157.59;;;10.48;100.00
58534;BME280;44109;52.398;7.024;2023-02-11T11:06:05;103156.00;;;10.70;100.00
58534;BME280;44109;52.398;7.024;2023-02-11T11:08:41;103154.47;;;10.77;100.00
58534;BME280;44109;52.398;7.024;2023-02-11T11:11:13;103161.84;;;10.46;100.00
58534;BME280;44109;52.398;7.024;2023-02-11T11:13:54;103160.41;;;10.71;100.00
58534;BME280;44109;52.398;7.024;2023-02-11T11:16:25;103174.75;;;10.64;100.00
58534;BME280;44109;52.398;7.024;2023-02-11T11:19:13;103166.63;;;10.68;100.00
58534;BME280;44109;52.398;7.024;2023-02-11T11:21:49;103169.84;;;10.47;100.00
58534;BME280;44109;52.398;7.024;2023-02-11T11:24:21;103158.72;;;10.61;100.00
58534;BME280;44109;52.398;7.024;2023-02-11T11:26:56;103156.22;;;10.73;100.00
58534;BME280;44109;52.398;7.024;2023-02-11T11:29:32;103140.94;;;10.48;100.00
58534;BME280;44109;52.398;7.024;2023-02-11T11:32:04;103160.53;;;10.65;100.00
58534;BME280;44109;52.398;7.024;2023-02-11T11:34:42;103157.44;;;10.67;100.00
58534;BME280;44109;52.398;7.024;2023-02-11T11:37:22;103153.56;;;10.68;100.00
58534;BME280;44109;52.398;7.024;2023-02-11T11:39:56;103155.69;;;10.71;100.00
58534;BME280;44109;52.398;7.024;2023-02-11T11:42:30;103140.06;;;10.75;100.00
58534;BME280;44109;52.398;7.024;2023-02-11T11:45:00;103157.44;;;10.67;100.00
58534;BME280;44109;52.398;7.024;2023-02-11T11:47:35;103154.19;;;10.65;100.00
58534;BME280;44109;52.398;7.024;2023-02-11T11:50:24;103140.56;;;10.77;100.00
58534;BME280;44109;52.398;7.024;2023-02-11T11:52:59;103145.13;;;11.18;100.00
58534;BME280;44109;52.398;7.024;2023-02-11T11:55:35;103141.22;;;11.19;100.00
58534;BME280;44109;52.398;7.024;2023-02-11T11:58:12;103145.16;;;11.49;100.00
58534;BME280;44109;52.398;7.024;2023-02-11T12:00:51;103141.19;;;11.41;100.00
58534;BME280;44109;52.398;7.024;2023-02-11T12:03:47;103141.41;;;10.78;100.00
58534;BME280;44109;52.398;7.024;2023-02-11T12:06:54;103133.19;;;10.73;100.00
58534;BME280;44109;52.398;7.024;2023-02-11T12:09:42;103139.44;;;10.78;100.00
58534;BME280;44109;52.398;7.024;2023-02-11T12:12:33;103141.91;;;10.30;100.00
58534;BME280;44109;52.398;7.024;2023-02-11T12:15:22;103141.94;;;10.66;100.00
58534;BME280;44109;52.398;7.024;2023-02-11T12:18:07;103143.75;;;10.34;100.00
58534;BME280;44109;52.398;7.024;2023-02-11T12:21:06;103145.81;;;10.15;100.00
58534;BME280;44109;52.398;7.024;2023-02-11T12:23:52;103152.16;;;9.60;100.00
58534;BME280;44109;52.398;7.024;2023-02-11T12:26:41;103139.56;;;9.82;100.00
58534;BME280;44109;52.398;7.024;2023-02-11T12:29:21;103144.56;;;10.21;100.00
58534;BME280;44109;52.398;7.024;2023-02-11T12:32:09;103143.97;;;10.24;100.00
58534;BME280;44109;52.398;7.024;2023-02-11T12:35:13;103151.97;;;10.39;100.00
58534;BME280;44109;52.398;7.024;2023-02-11T12:38:12;103139.84;;;10.35;100.00
58534;BME280;44109;52.398;7.024;2023-02-11T12:41:03;103155.56;;;9.99;100.00
58534;BME280;44109;52.398;7.024;2023-02-11T12:44:12;103155.75;;;10.44;100.00
58534;BME280;44109;52.398;7.024;2023-02-11T12:46:49;103159.06;;;10.46;100.00
58534;BME280;44109;52.398;7.024;2023-02-11T12:49:37;103155.16;;;10.47;100.00
58534;BME280;44109;52.398;7.024;2023-02-11T12:52:26;103151.91;;;10.67;100.00
58534;BME280;44109;52.398;7.024;2023-02-11T12:55:10;103159.56;;;10.48;100.00
58534;BME280;44109;52.398;7.024;2023-02-11T12:57:47;103154.97;;;10.29;100.00
58534;BME280;44109;52.398;7.024;2023-02-11T13:00:22;103141.88;;;10.44;100.00
58534;BME280;44109;52.398;7.024;2023-02-11T13:02:59;103148.38;;;10.39;100.00
58534;BME280;44109;52.398;7.024;2023-02-11T13:05:37;103146.81;;;10.47;100.00
58534;BME280;44109;52.398;7.024;2023-02-11T13:08:10;103144.16;;;10.41;100.00
58534;BME280;44109;52.398;7.024;2023-02-11T13:10:45;103135.06;;;10.63;100.00
58534;BME280;44109;52.398;7.024;2023-02-11T13:13:18;103137.38;;;10.20;100.00
58534;BME280;44109;52.398;7.024;2023-02-11T13:15:54;103114.50;;;10.01;100.00
58534;BME280;44109;52.398;7.024;2023-02-11T13:18:48;103141.72;;;10.26;100.00
58534;BME280;44109;52.398;7.024;2023-02-11T13:21:37;103149.59;;;10.19;100.00
58534;BME280;44109;52.398;7.024;2023-02-11T13:24:21;103151.69;;;10.00;100.00
58534;BME280;44109;52.398;7.024;2023-02-11T13:26:59;103155.88;;;10.38;100.00